createdAt,value
2022-11-05T00:00:34.867Z,1009.26
2022-11-05T00:01:34.862Z,1009.26
2022-11-05T00:02:34.863Z,1009.28
2022-11-05T00:03:34.854Z,1009.30
2022-11-05T00:04:34.805Z,1009.31
2022-11-05T00:05:34.773Z,1009.30
2022-11-05T00:06:34.772Z,1009.30
2022-11-05T00:07:34.758Z,1009.28
2022-11-05T00:08:34.751Z,1009.29
2022-11-05T00:09:34.773Z,1009.29
2022-11-05T00:10:34.880Z,1009.30
2022-11-05T00:11:34.714Z,1009.30
2022-11-05T00:12:34.721Z,1009.29
2022-11-05T00:13:34.733Z,1009.29
2022-11-05T00:14:34.725Z,1009.29
2022-11-05T00:15:34.686Z,1009.30
2022-11-05T00:16:34.654Z,1009.31
2022-11-05T00:17:34.682Z,1009.31
2022-11-05T00:18:34.651Z,1009.32
2022-11-05T00:19:34.655Z,1009.32
2022-11-05T00:20:34.637Z,1009.34
2022-11-05T00:21:34.601Z,1009.35
2022-11-05T00:22:34.609Z,1009.36
2022-11-05T00:23:34.643Z,1009.39
2022-11-05T00:24:34.594Z,1009.41
2022-11-05T00:25:34.567Z,1009.43
2022-11-05T00:26:34.608Z,1009.45
2022-11-05T00:27:34.557Z,1009.45
2022-11-05T00:28:34.556Z,1009.46
2022-11-05T00:29:34.543Z,1009.47
2022-11-05T00:30:34.532Z,1009.47
2022-11-05T00:31:34.515Z,1009.47
2022-11-05T00:32:34.572Z,1009.48
2022-11-05T00:33:34.475Z,1009.49
2022-11-05T00:34:34.498Z,1009.50
2022-11-05T00:35:34.486Z,1009.51
2022-11-05T00:36:34.468Z,1009.51
2022-11-05T00:37:34.452Z,1009.53
2022-11-05T00:38:34.470Z,1009.54
2022-11-05T00:39:34.420Z,1009.55
2022-11-05T00:40:34.437Z,1009.57
2022-11-05T00:41:34.437Z,1009.57
2022-11-05T00:42:34.403Z,1009.58
2022-11-05T00:43:34.371Z,1009.59
2022-11-05T00:44:34.408Z,1009.59
2022-11-05T00:45:34.381Z,1009.60
2022-11-05T00:46:34.375Z,1009.61
2022-11-05T00:47:34.344Z,1009.61
2022-11-05T00:48:34.345Z,1009.60
2022-11-05T00:49:34.369Z,1009.59
2022-11-05T00:50:34.355Z,1009.58
2022-11-05T00:51:34.304Z,1009.59
2022-11-05T00:52:34.306Z,1009.60
2022-11-05T00:53:34.280Z,1009.61
2022-11-05T00:54:34.304Z,1009.62
2022-11-05T00:55:34.311Z,1009.63
2022-11-05T00:56:34.262Z,1009.64
2022-11-05T00:57:34.247Z,1009.65
2022-11-05T00:58:34.224Z,1009.67
2022-11-05T00:59:34.281Z,1009.68
2022-11-05T01:00:34.222Z,1009.70
2022-11-05T01:01:34.395Z,1009.72
2022-11-05T01:02:34.362Z,1009.74
2022-11-05T01:03:34.192Z,1009.76
2022-11-05T01:04:34.171Z,1009.78
2022-11-05T01:05:34.151Z,1009.78
2022-11-05T01:06:34.167Z,1009.80
2022-11-05T01:07:34.272Z,1009.81
2022-11-05T01:08:34.166Z,1009.82
2022-11-05T01:09:34.126Z,1009.81
2022-11-05T01:10:34.100Z,1009.81
2022-11-05T01:11:34.107Z,1009.80
2022-11-05T01:12:34.081Z,1009.78
2022-11-05T01:13:34.086Z,1009.77
2022-11-05T01:14:34.097Z,1009.77
2022-11-05T01:15:34.064Z,1009.78
2022-11-05T01:16:34.059Z,1009.78
2022-11-05T01:17:34.045Z,1009.78
2022-11-05T01:18:34.045Z,1009.77
2022-11-05T01:19:34.001Z,1009.77
2022-11-05T01:20:34.015Z,1009.78
2022-11-05T01:21:33.987Z,1009.79
2022-11-05T01:22:34.046Z,1009.80
2022-11-05T01:23:34.382Z,1009.83
2022-11-05T01:24:33.985Z,1009.83
2022-11-05T01:25:34.007Z,1009.83
2022-11-05T01:26:33.929Z,1009.82
2022-11-05T01:27:33.964Z,1009.83
2022-11-05T01:28:34.019Z,1009.83
2022-11-05T01:29:33.924Z,1009.83
2022-11-05T01:30:33.895Z,1009.83
2022-11-05T01:31:33.939Z,1009.83
2022-11-05T01:32:33.927Z,1009.82
2022-11-05T01:33:33.860Z,1009.81
2022-11-05T01:34:33.874Z,1009.81
2022-11-05T01:35:33.832Z,1009.82
2022-11-05T01:36:33.851Z,1009.84
2022-11-05T01:37:33.861Z,1009.84
2022-11-05T01:38:33.831Z,1009.85
2022-11-05T01:39:33.812Z,1009.86
2022-11-05T01:40:33.831Z,1009.88
2022-11-05T01:41:33.811Z,1009.89
2022-11-05T01:42:33.770Z,1009.89
2022-11-05T01:43:34.031Z,1009.88
2022-11-05T01:44:33.821Z,1009.88
2022-11-05T01:45:33.764Z,1009.87
2022-11-05T01:46:33.726Z,1009.89
2022-11-05T01:47:33.706Z,1009.92
2022-11-05T01:48:33.720Z,1009.93
2022-11-05T01:49:33.715Z,1009.96
2022-11-05T01:50:33.714Z,1009.98
2022-11-05T01:51:33.711Z,1009.95
2022-11-05T01:52:33.687Z,1009.93
2022-11-05T01:53:33.657Z,1009.94
2022-11-05T01:54:33.672Z,1009.93
2022-11-05T01:55:33.695Z,1009.93
2022-11-05T01:56:33.654Z,1009.95
2022-11-05T01:57:33.622Z,1009.96
2022-11-05T01:58:33.588Z,1009.96
2022-11-05T01:59:33.628Z,1009.98
2022-11-05T02:00:33.630Z,1009.97
2022-11-05T02:01:33.736Z,1009.97
2022-11-05T02:02:33.662Z,1009.96
2022-11-05T02:03:33.596Z,1009.95
2022-11-05T02:04:33.557Z,1009.95
2022-11-05T02:05:33.530Z,1009.95
2022-11-05T02:06:33.533Z,1009.95
2022-11-05T02:07:33.536Z,1009.96
2022-11-05T02:08:33.509Z,1009.98
2022-11-05T02:09:33.503Z,1009.98
2022-11-05T02:10:33.468Z,1009.99
2022-11-05T02:11:33.531Z,1010.01
2022-11-05T02:12:33.468Z,1010.02
2022-11-05T02:13:33.477Z,1010.02
2022-11-05T02:14:33.450Z,1010.02
2022-11-05T02:15:33.450Z,1010.02
2022-11-05T02:16:33.420Z,1010.02
2022-11-05T02:17:33.435Z,1010.02
2022-11-05T02:18:33.394Z,1010.04
2022-11-05T02:19:33.398Z,1010.04
2022-11-05T02:20:33.408Z,1010.04
2022-11-05T02:21:33.361Z,1010.04
2022-11-05T02:22:33.362Z,1010.04
2022-11-05T02:23:33.390Z,1010.03
2022-11-05T02:24:33.329Z,1010.03
2022-11-05T02:25:33.333Z,1010.02
2022-11-05T02:26:33.334Z,1010.04
2022-11-05T02:27:33.327Z,1010.06
2022-11-05T02:28:33.277Z,1010.08
2022-11-05T02:29:33.277Z,1010.09
2022-11-05T02:30:33.263Z,1010.09
2022-11-05T02:31:33.300Z,1010.11
2022-11-05T02:32:33.247Z,1010.12
2022-11-05T02:33:33.266Z,1010.14
2022-11-05T02:34:33.311Z,1010.16
2022-11-05T02:35:33.247Z,1010.18
2022-11-05T02:36:33.250Z,1010.19
2022-11-05T02:37:33.243Z,1010.20
2022-11-05T02:38:33.207Z,1010.21
2022-11-05T02:39:33.179Z,1010.23
2022-11-05T02:40:33.220Z,1010.23
2022-11-05T02:41:33.189Z,1010.22
2022-11-05T02:42:33.207Z,1010.21
2022-11-05T02:43:33.161Z,1010.21
2022-11-05T02:44:33.132Z,1010.22
2022-11-05T02:45:33.126Z,1010.21
2022-11-05T02:46:33.168Z,1010.21
2022-11-05T02:47:33.100Z,1010.21
2022-11-05T02:48:33.088Z,1010.21
2022-11-05T02:49:33.079Z,1010.19
2022-11-05T02:50:33.063Z,1010.19
2022-11-05T02:51:33.068Z,1010.18
2022-11-05T02:52:33.060Z,1010.18
2022-11-05T02:53:33.037Z,1010.18
2022-11-05T02:54:33.051Z,1010.19
2022-11-05T02:55:33.035Z,1010.18
2022-11-05T02:56:33.015Z,1010.18
2022-11-05T02:57:33.044Z,1010.16
2022-11-05T02:58:32.981Z,1010.16
2022-11-05T02:59:33.011Z,1010.16
2022-11-05T03:00:33.001Z,1010.18
2022-11-05T03:01:33.073Z,1010.18
2022-11-05T03:02:33.123Z,1010.18
2022-11-05T03:03:32.975Z,1010.17
2022-11-05T03:04:32.938Z,1010.16
2022-11-05T03:05:32.917Z,1010.14
2022-11-05T03:06:32.915Z,1010.15
2022-11-05T03:07:32.892Z,1010.16
2022-11-05T03:08:32.913Z,1010.17
2022-11-05T03:09:32.925Z,1010.17
2022-11-05T03:10:32.900Z,1010.17
2022-11-05T03:11:32.895Z,1010.17
2022-11-05T03:12:32.860Z,1010.16
2022-11-05T03:13:32.861Z,1010.15
2022-11-05T03:14:32.821Z,1010.16
2022-11-05T03:15:32.822Z,1010.17
2022-11-05T03:16:32.796Z,1010.17
2022-11-05T03:17:32.784Z,1010.18
2022-11-05T03:18:32.790Z,1010.19
2022-11-05T03:19:32.805Z,1010.20
2022-11-05T03:20:32.740Z,1010.21
2022-11-05T03:21:32.756Z,1010.19
2022-11-05T03:22:32.774Z,1010.18
2022-11-05T03:23:32.770Z,1010.18
2022-11-05T03:24:32.700Z,1010.17
2022-11-05T03:25:32.708Z,1010.16
2022-11-05T03:26:32.694Z,1010.15
2022-11-05T03:27:32.698Z,1010.16
2022-11-05T03:28:32.677Z,1010.17
2022-11-05T03:29:32.675Z,1010.17
2022-11-05T03:30:32.651Z,1010.17
2022-11-05T03:31:32.654Z,1010.16
2022-11-05T03:32:32.679Z,1010.20
2022-11-05T03:33:32.649Z,1010.21
2022-11-05T03:34:32.612Z,1010.23
2022-11-05T03:35:32.662Z,1010.25
2022-11-05T03:36:32.613Z,1010.24
2022-11-05T03:37:32.584Z,1010.23
2022-11-05T03:38:32.603Z,1010.24
2022-11-05T03:39:32.555Z,1010.24
2022-11-05T03:40:32.538Z,1010.24
2022-11-05T03:41:32.554Z,1010.26
2022-11-05T03:42:32.529Z,1010.26
2022-11-05T03:43:32.534Z,1010.26
2022-11-05T03:44:32.498Z,1010.27
2022-11-05T03:45:32.506Z,1010.27
2022-11-05T03:46:32.513Z,1010.28
2022-11-05T03:47:32.474Z,1010.29
2022-11-05T03:48:32.556Z,1010.31
2022-11-05T03:49:32.450Z,1010.31
2022-11-05T03:50:37.077Z,1010.31
2022-11-05T03:51:32.443Z,1010.33
2022-11-05T03:52:32.461Z,1010.35
2022-11-05T03:53:32.411Z,1010.38
2022-11-05T03:54:32.388Z,1010.38
2022-11-05T03:55:32.474Z,1010.39
2022-11-05T03:56:32.391Z,1010.40
2022-11-05T03:57:32.394Z,1010.40
2022-11-05T03:58:32.357Z,1010.40
2022-11-05T03:59:32.391Z,1010.41
2022-11-05T04:00:32.351Z,1010.42
2022-11-05T04:01:32.500Z,1010.43
2022-11-05T04:02:32.514Z,1010.43
2022-11-05T04:03:32.328Z,1010.44
2022-11-05T04:04:32.315Z,1010.43
2022-11-05T04:05:32.302Z,1010.43
2022-11-05T04:06:32.260Z,1010.45
2022-11-05T04:07:32.329Z,1010.47
2022-11-05T04:08:32.280Z,1010.50
2022-11-05T04:09:32.259Z,1010.51
2022-11-05T04:10:32.224Z,1010.52
2022-11-05T04:11:32.272Z,1010.53
2022-11-05T04:12:32.223Z,1010.56
2022-11-05T04:13:32.226Z,1010.56
2022-11-05T04:14:32.200Z,1010.56
2022-11-05T04:15:32.200Z,1010.57
2022-11-05T04:16:32.177Z,1010.58
2022-11-05T04:17:32.184Z,1010.57
2022-11-05T04:18:32.239Z,1010.57
2022-11-05T04:19:32.178Z,1010.58
2022-11-05T04:20:32.157Z,1010.57
2022-11-05T04:21:32.133Z,1010.59
2022-11-05T04:22:32.105Z,1010.59
2022-11-05T04:23:32.107Z,1010.60
2022-11-05T04:24:32.117Z,1010.60
2022-11-05T04:25:32.104Z,1010.61
2022-11-05T04:26:32.070Z,1010.60
2022-11-05T04:27:32.060Z,1010.61
2022-11-05T04:28:32.087Z,1010.61
2022-11-05T04:29:32.152Z,1010.62
2022-11-05T04:30:32.011Z,1010.63
2022-11-05T04:31:32.059Z,1010.66
2022-11-05T04:32:32.027Z,1010.67
2022-11-05T04:33:32.044Z,1010.68
2022-11-05T04:34:31.998Z,1010.71
2022-11-05T04:35:32.018Z,1010.72
2022-11-05T04:36:31.967Z,1010.74
2022-11-05T04:37:31.959Z,1010.77
2022-11-05T04:38:31.966Z,1010.76
2022-11-05T04:39:31.942Z,1010.75
2022-11-05T04:40:31.915Z,1010.75
2022-11-05T04:41:31.997Z,1010.77
2022-11-05T04:42:31.898Z,1010.78
2022-11-05T04:43:31.911Z,1010.79
2022-11-05T04:44:31.883Z,1010.80
2022-11-05T04:45:31.904Z,1010.81
2022-11-05T04:46:31.866Z,1010.81
2022-11-05T04:47:31.858Z,1010.81
2022-11-05T04:48:31.863Z,1010.80
2022-11-05T04:49:31.854Z,1010.81
2022-11-05T04:50:31.822Z,1010.82
2022-11-05T04:51:31.829Z,1010.83
2022-11-05T04:52:31.808Z,1010.82
2022-11-05T04:53:31.827Z,1010.81
2022-11-05T04:54:31.780Z,1010.80
2022-11-05T04:55:31.836Z,1010.79
2022-11-05T04:56:31.761Z,1010.78
2022-11-05T04:57:31.755Z,1010.76
2022-11-05T04:58:31.737Z,1010.75
2022-11-05T04:59:31.729Z,1010.74
2022-11-05T05:00:31.793Z,1010.74
2022-11-05T05:01:31.938Z,1010.75
2022-11-05T05:02:31.709Z,1010.75
2022-11-05T05:03:31.720Z,1010.75
2022-11-05T05:04:31.740Z,1010.78
2022-11-05T05:05:31.655Z,1010.78
2022-11-05T05:06:31.665Z,1010.78
2022-11-05T05:07:31.686Z,1010.81
2022-11-05T05:08:31.626Z,1010.81
2022-11-05T05:09:31.625Z,1010.81
2022-11-05T05:10:31.633Z,1010.82
2022-11-05T05:11:31.629Z,1010.82
2022-11-05T05:12:31.597Z,1010.82
2022-11-05T05:13:31.595Z,1010.83
2022-11-05T05:14:31.565Z,1010.83
2022-11-05T05:15:31.572Z,1010.85
2022-11-05T05:16:31.577Z,1010.86
2022-11-05T05:17:31.599Z,1010.88
2022-11-05T05:18:31.540Z,1010.90
2022-11-05T05:19:31.551Z,1010.90
2022-11-05T05:20:31.534Z,1010.91
2022-11-05T05:21:31.504Z,1010.92
2022-11-05T05:22:31.498Z,1010.92
2022-11-05T05:23:31.498Z,1010.91
2022-11-05T05:24:31.493Z,1010.91
2022-11-05T05:25:31.509Z,1010.92
2022-11-05T05:26:31.482Z,1010.93
2022-11-05T05:27:31.466Z,1010.93
2022-11-05T05:28:31.425Z,1010.94
2022-11-05T05:29:31.446Z,1010.95
2022-11-05T05:30:31.411Z,1010.97
2022-11-05T05:31:31.415Z,1010.98
2022-11-05T05:32:31.374Z,1010.98
2022-11-05T05:33:31.422Z,1010.98
2022-11-05T05:34:31.347Z,1010.99
2022-11-05T05:35:31.351Z,1010.98
2022-11-05T05:36:31.326Z,1010.98
2022-11-05T05:37:31.344Z,1010.99
2022-11-05T05:38:31.328Z,1011.00
2022-11-05T05:39:31.339Z,1011.02
2022-11-05T05:40:31.310Z,1011.04
2022-11-05T05:41:31.302Z,1011.04
2022-11-05T05:42:31.287Z,1011.04
2022-11-05T05:43:31.327Z,1011.04
2022-11-05T05:44:31.454Z,1011.04
2022-11-05T05:45:31.246Z,1011.04
2022-11-05T05:46:31.269Z,1011.04
2022-11-05T05:47:31.279Z,1011.05
2022-11-05T05:48:31.218Z,1011.06
2022-11-05T05:49:31.230Z,1011.09
2022-11-05T05:50:31.198Z,1011.11
2022-11-05T05:51:31.191Z,1011.13
2022-11-05T05:52:31.208Z,1011.14
2022-11-05T05:53:31.176Z,1011.15
2022-11-05T05:54:34.216Z,1011.15
2022-11-05T05:55:31.139Z,1011.15
2022-11-05T05:56:31.137Z,1011.15
2022-11-05T05:57:31.136Z,1011.17
2022-11-05T05:58:31.131Z,1011.19
2022-11-05T05:59:31.115Z,1011.20
2022-11-05T06:00:31.054Z,1011.21
2022-11-05T06:01:31.223Z,1011.21
2022-11-05T06:02:31.127Z,1011.21
2022-11-05T06:03:31.042Z,1011.22
2022-11-05T06:04:31.015Z,1011.23
2022-11-05T06:05:31.011Z,1011.24
2022-11-05T06:06:30.987Z,1011.24
2022-11-05T06:07:36.057Z,1011.26
2022-11-05T06:08:30.983Z,1011.28
2022-11-05T06:09:30.988Z,1011.29
2022-11-05T06:10:30.992Z,1011.31
2022-11-05T06:11:30.958Z,1011.31
2022-11-05T06:12:30.980Z,1011.33
2022-11-05T06:13:30.924Z,1011.33
2022-11-05T06:14:30.914Z,1011.34
2022-11-05T06:15:35.711Z,1011.35
2022-11-05T06:16:30.887Z,1011.38
2022-11-05T06:17:30.871Z,1011.39
2022-11-05T06:18:30.851Z,1011.40
2022-11-05T06:19:30.918Z,1011.41
2022-11-05T06:20:30.843Z,1011.43
2022-11-05T06:21:30.827Z,1011.44
2022-11-05T06:22:30.836Z,1011.47
2022-11-05T06:23:30.839Z,1011.50
2022-11-05T06:24:30.785Z,1011.52
2022-11-05T06:25:30.814Z,1011.53
2022-11-05T06:26:30.808Z,1011.54
2022-11-05T06:27:30.778Z,1011.55
2022-11-05T06:28:30.738Z,1011.57
2022-11-05T06:29:30.736Z,1011.59
2022-11-05T06:30:30.796Z,1011.61
2022-11-05T06:31:30.720Z,1011.62
2022-11-05T06:32:30.727Z,1011.63
2022-11-05T06:33:30.677Z,1011.61
2022-11-05T06:34:30.706Z,1011.60
2022-11-05T06:35:30.674Z,1011.61
2022-11-05T06:36:30.710Z,1011.61
2022-11-05T06:37:30.651Z,1011.61
2022-11-05T06:38:30.635Z,1011.62
2022-11-05T06:39:30.656Z,1011.62
2022-11-05T06:40:30.653Z,1011.63
2022-11-05T06:41:30.596Z,1011.63
2022-11-05T06:42:30.631Z,1011.63
2022-11-05T06:43:30.615Z,1011.63
2022-11-05T06:44:30.602Z,1011.64
2022-11-05T06:45:30.569Z,1011.64
2022-11-05T06:46:30.567Z,1011.66
2022-11-05T06:47:30.552Z,1011.65
2022-11-05T06:48:30.594Z,1011.65
2022-11-05T06:49:30.563Z,1011.66
2022-11-05T06:50:30.516Z,1011.66
2022-11-05T06:51:30.599Z,1011.67
2022-11-05T06:52:30.495Z,1011.70
2022-11-05T06:53:30.475Z,1011.70
2022-11-05T06:54:30.474Z,1011.72
2022-11-05T06:55:30.546Z,1011.76
2022-11-05T06:56:30.464Z,1011.77
2022-11-05T06:57:30.448Z,1011.79
2022-11-05T06:58:30.486Z,1011.80
2022-11-05T06:59:30.415Z,1011.82
2022-11-05T07:00:30.542Z,1011.83
2022-11-05T07:01:30.523Z,1011.86
2022-11-05T07:02:30.383Z,1011.88
2022-11-05T07:03:30.378Z,1011.89
2022-11-05T07:04:30.393Z,1011.91
2022-11-05T07:05:30.460Z,1011.93
2022-11-05T07:06:34.358Z,1011.95
2022-11-05T07:07:30.354Z,1011.96
2022-11-05T07:08:30.342Z,1011.97
2022-11-05T07:09:30.344Z,1011.99
2022-11-05T07:10:30.302Z,1012.01
2022-11-05T07:11:30.396Z,1012.01
2022-11-05T07:12:30.312Z,1012.01
2022-11-05T07:13:30.277Z,1012.02
2022-11-05T07:14:30.268Z,1012.03
2022-11-05T07:15:30.236Z,1012.02
2022-11-05T07:16:30.261Z,1012.04
2022-11-05T07:17:30.251Z,1012.07
2022-11-05T07:18:30.241Z,1012.10
2022-11-05T07:19:30.212Z,1012.13
2022-11-05T07:20:33.924Z,1012.14
2022-11-05T07:21:30.194Z,1012.16
2022-11-05T07:22:30.229Z,1012.16
2022-11-05T07:23:30.183Z,1012.14
2022-11-05T07:24:30.221Z,1012.15
2022-11-05T07:25:30.154Z,1012.12
2022-11-05T07:26:34.395Z,1012.11
2022-11-05T07:27:30.152Z,1012.11
2022-11-05T07:28:30.146Z,1012.13
2022-11-05T07:29:30.106Z,1012.12
2022-11-05T07:30:30.097Z,1012.11
2022-11-05T07:31:30.163Z,1012.10
2022-11-05T07:32:30.095Z,1012.11
2022-11-05T07:33:35.236Z,1012.12
2022-11-05T07:34:30.075Z,1012.13
2022-11-05T07:35:30.099Z,1012.13
2022-11-05T07:36:30.042Z,1012.13
2022-11-05T07:37:30.029Z,1012.13
2022-11-05T07:38:30.099Z,1012.13
2022-11-05T07:39:30.007Z,1012.14
2022-11-05T07:40:29.998Z,1012.14
2022-11-05T07:41:30.116Z,1012.15
2022-11-05T07:42:30.003Z,1012.15
2022-11-05T07:43:29.975Z,1012.16
2022-11-05T07:44:29.950Z,1012.18
2022-11-05T07:45:29.953Z,1012.21
2022-11-05T07:46:29.941Z,1012.21
2022-11-05T07:47:29.956Z,1012.19
2022-11-05T07:48:29.979Z,1012.21
2022-11-05T07:49:29.886Z,1012.23
2022-11-05T07:50:29.944Z,1012.23
2022-11-05T07:51:29.896Z,1012.25
2022-11-05T07:52:29.856Z,1012.27
2022-11-05T07:53:29.892Z,1012.28
2022-11-05T07:54:29.857Z,1012.30
2022-11-05T07:55:29.826Z,1012.29
2022-11-05T07:56:29.828Z,1012.29
2022-11-05T07:57:29.828Z,1012.31
2022-11-05T07:58:29.830Z,1012.32
2022-11-05T07:59:29.801Z,1012.32
2022-11-05T08:00:29.799Z,1012.32
2022-11-05T08:01:29.922Z,1012.33
2022-11-05T08:02:29.966Z,1012.33
2022-11-05T08:03:29.895Z,1012.30
2022-11-05T08:04:29.762Z,1012.28
2022-11-05T08:05:29.730Z,1012.27
2022-11-05T08:06:29.729Z,1012.27
2022-11-05T08:07:29.731Z,1012.27
2022-11-05T08:08:29.771Z,1012.28
2022-11-05T08:09:29.674Z,1012.26
2022-11-05T08:10:29.708Z,1012.26
2022-11-05T08:11:29.676Z,1012.26
2022-11-05T08:12:29.651Z,1012.25
2022-11-05T08:13:29.651Z,1012.25
2022-11-05T08:14:29.655Z,1012.26
2022-11-05T08:15:29.668Z,1012.27
2022-11-05T08:16:29.655Z,1012.28
2022-11-05T08:17:29.602Z,1012.29
2022-11-05T08:18:29.648Z,1012.31
2022-11-05T08:19:29.593Z,1012.30
2022-11-05T08:20:29.587Z,1012.33
2022-11-05T08:21:29.564Z,1012.34
2022-11-05T08:22:29.601Z,1012.36
2022-11-05T08:23:29.587Z,1012.39
2022-11-05T08:24:29.580Z,1012.38
2022-11-05T08:25:29.541Z,1012.35
2022-11-05T08:26:29.521Z,1012.33
2022-11-05T08:27:29.498Z,1012.32
2022-11-05T08:28:29.542Z,1012.33
2022-11-05T08:29:29.505Z,1012.34
2022-11-05T08:30:29.504Z,1012.35
2022-11-05T08:31:29.483Z,1012.36
2022-11-05T08:32:29.450Z,1012.40
2022-11-05T08:33:29.430Z,1012.41
2022-11-05T08:34:29.489Z,1012.41
2022-11-05T08:35:29.451Z,1012.42
2022-11-05T08:36:29.439Z,1012.41
2022-11-05T08:37:29.417Z,1012.43
2022-11-05T08:38:29.384Z,1012.42
2022-11-05T08:39:29.403Z,1012.42
2022-11-05T08:40:29.411Z,1012.43
2022-11-05T08:41:29.426Z,1012.45
2022-11-05T08:42:29.348Z,1012.48
2022-11-05T08:43:29.355Z,1012.46
2022-11-05T08:44:29.382Z,1012.45
2022-11-05T08:45:29.654Z,1012.48
2022-11-05T08:46:29.315Z,1012.48
2022-11-05T08:47:29.301Z,1012.48
2022-11-05T08:48:29.298Z,1012.49
2022-11-05T08:49:29.319Z,1012.51
2022-11-05T08:50:29.270Z,1012.52
2022-11-05T08:51:29.265Z,1012.54
2022-11-05T08:52:29.510Z,1012.55
2022-11-05T08:53:29.607Z,1012.56
2022-11-05T08:54:29.305Z,1012.53
2022-11-05T08:55:29.241Z,1012.53
2022-11-05T08:56:29.252Z,1012.52
2022-11-05T08:57:29.218Z,1012.55
2022-11-05T08:58:29.240Z,1012.56
2022-11-05T08:59:29.226Z,1012.60
2022-11-05T09:00:29.205Z,1012.60
2022-11-05T09:01:29.351Z,1012.61
2022-11-05T09:02:29.338Z,1012.62
2022-11-05T09:03:29.172Z,1012.60
2022-11-05T09:04:29.227Z,1012.58
2022-11-05T09:05:29.116Z,1012.59
2022-11-05T09:06:29.132Z,1012.58
2022-11-05T09:07:29.143Z,1012.56
2022-11-05T09:08:29.098Z,1012.58
2022-11-05T09:09:29.103Z,1012.61
2022-11-05T09:10:29.135Z,1012.59
2022-11-05T09:11:49.601Z,1012.59
2022-11-05T09:12:29.073Z,1012.58
2022-11-05T09:13:29.235Z,1012.56
2022-11-05T09:14:28.066Z,1012.58
2022-11-05T09:15:29.045Z,1012.60
2022-11-05T09:16:29.018Z,1012.62
2022-11-05T09:17:28.992Z,1012.63
2022-11-05T09:18:29.005Z,1012.65
2022-11-05T09:19:28.957Z,1012.65
2022-11-05T09:20:28.998Z,1012.64
2022-11-05T09:21:28.975Z,1012.66
2022-11-05T09:22:29.013Z,1012.67
2022-11-05T09:23:28.961Z,1012.68
2022-11-05T09:24:28.942Z,1012.67
2022-11-05T09:25:28.913Z,1012.67
2022-11-05T09:26:28.905Z,1012.71
2022-11-05T09:27:28.918Z,1012.69
2022-11-05T09:28:28.890Z,1012.70
2022-11-05T09:29:28.878Z,1012.71
2022-11-05T09:30:28.875Z,1012.73
2022-11-05T09:31:28.846Z,1012.74
2022-11-05T09:32:28.842Z,1012.73
2022-11-05T09:33:28.833Z,1012.73
2022-11-05T09:34:28.847Z,1012.73
2022-11-05T09:35:28.799Z,1012.73
2022-11-05T09:36:28.795Z,1012.73
2022-11-05T09:37:28.767Z,1012.73
2022-11-05T09:38:28.778Z,1012.75
2022-11-05T09:39:28.756Z,1012.74
2022-11-05T09:40:28.756Z,1012.74
2022-11-05T09:41:28.734Z,1012.76
2022-11-05T09:42:28.735Z,1012.77
2022-11-05T09:43:31.782Z,1012.79
2022-11-05T09:44:28.768Z,1012.81
2022-11-05T09:45:28.722Z,1012.80
2022-11-05T09:46:28.675Z,1012.83
2022-11-05T09:47:28.680Z,1012.81
2022-11-05T09:48:28.676Z,1012.83
2022-11-05T09:49:28.647Z,1012.84
2022-11-05T09:50:28.651Z,1012.83
2022-11-05T09:51:28.660Z,1012.85
2022-11-05T09:52:28.613Z,1012.85
2022-11-05T09:53:28.615Z,1012.85
2022-11-05T09:54:28.687Z,1012.84
2022-11-05T09:55:28.592Z,1012.87
2022-11-05T09:56:28.603Z,1012.87
2022-11-05T09:57:28.624Z,1012.84
2022-11-05T09:58:29.063Z,1012.83
2022-11-05T09:59:28.597Z,1012.83
2022-11-05T10:00:28.515Z,1012.82
2022-11-05T10:01:28.715Z,1012.84
2022-11-05T10:02:28.645Z,1012.84
2022-11-05T10:03:28.539Z,1012.87
2022-11-05T10:04:28.494Z,1012.84
2022-11-05T10:05:28.546Z,1012.84
2022-11-05T10:06:28.501Z,1012.84
2022-11-05T10:07:28.459Z,1012.83
2022-11-05T10:08:28.432Z,1012.83
2022-11-05T10:09:28.480Z,1012.83
2022-11-05T10:10:28.432Z,1012.81
2022-11-05T10:11:28.420Z,1012.82
2022-11-05T10:12:28.468Z,1012.81
2022-11-05T10:13:28.410Z,1012.80
2022-11-05T10:14:28.381Z,1012.80
2022-11-05T10:15:28.371Z,1012.80
2022-11-05T10:16:28.421Z,1012.77
2022-11-05T10:17:28.372Z,1012.78
2022-11-05T10:18:28.331Z,1012.76
2022-11-05T10:19:28.376Z,1012.78
2022-11-05T10:20:28.316Z,1012.78
2022-11-05T10:21:59.645Z,1012.77
2022-11-05T10:22:28.290Z,1012.79
2022-11-05T10:23:28.584Z,1012.79
2022-11-05T10:24:28.276Z,1012.80
2022-11-05T10:25:28.278Z,1012.79
2022-11-05T10:26:28.270Z,1012.78
2022-11-05T10:27:28.245Z,1012.76
2022-11-05T10:28:28.213Z,1012.79
2022-11-05T10:29:28.227Z,1012.79
2022-11-05T10:30:28.213Z,1012.76
2022-11-05T10:31:32.871Z,1012.78
2022-11-05T10:32:28.231Z,1012.78
2022-11-05T10:33:28.199Z,1012.81
2022-11-05T10:34:28.191Z,1012.82
2022-11-05T10:35:28.165Z,1012.82
2022-11-05T10:36:28.141Z,1012.82
2022-11-05T10:37:28.535Z,1012.81
2022-11-05T10:38:28.210Z,1012.80
2022-11-05T10:39:28.173Z,1012.78
2022-11-05T10:40:28.185Z,1012.80
2022-11-05T10:41:28.158Z,1012.81
2022-11-05T10:42:28.097Z,1012.82
2022-11-05T10:43:28.099Z,1012.82
2022-11-05T10:44:28.113Z,1012.82
2022-11-05T10:45:28.172Z,1012.80
2022-11-05T10:46:28.043Z,1012.82
2022-11-05T10:47:28.057Z,1012.81
2022-11-05T10:48:28.314Z,1012.80
2022-11-05T10:49:28.032Z,1012.82
2022-11-05T10:50:28.048Z,1012.81
2022-11-05T10:51:28.027Z,1012.82
2022-11-05T10:52:28.032Z,1012.82
2022-11-05T10:53:27.992Z,1012.83
2022-11-05T10:54:28.031Z,1012.85
2022-11-05T10:55:27.963Z,1012.86
2022-11-05T10:56:28.022Z,1012.86
2022-11-05T10:57:27.976Z,1012.87
2022-11-05T10:58:28.014Z,1012.85
2022-11-05T10:59:27.980Z,1012.86
2022-11-05T11:00:27.887Z,1012.87
2022-11-05T11:01:28.068Z,1012.86
2022-11-05T11:02:27.993Z,1012.85
2022-11-05T11:03:27.909Z,1012.85
2022-11-05T11:04:27.856Z,1012.86
2022-11-05T11:05:27.855Z,1012.88
2022-11-05T11:06:27.860Z,1012.88
2022-11-05T11:07:27.865Z,1012.86
2022-11-05T11:08:27.880Z,1012.87
2022-11-05T11:09:27.836Z,1012.87
2022-11-05T11:10:27.848Z,1012.87
2022-11-05T11:11:27.786Z,1012.86
2022-11-05T11:12:27.795Z,1012.85
2022-11-05T11:13:27.769Z,1012.87
2022-11-05T11:14:27.801Z,1012.84
2022-11-05T11:15:27.754Z,1012.83
2022-11-05T11:16:27.774Z,1012.81
2022-11-05T11:17:27.798Z,1012.84
2022-11-05T11:18:27.718Z,1012.78
2022-11-05T11:19:27.734Z,1012.78
2022-11-05T11:20:27.701Z,1012.75
2022-11-05T11:21:27.763Z,1012.74
2022-11-05T11:22:27.663Z,1012.75
2022-11-05T11:23:27.657Z,1012.77
2022-11-05T11:24:32.541Z,1012.75
2022-11-05T11:25:27.639Z,1012.74
2022-11-05T11:26:27.607Z,1012.76
2022-11-05T11:27:27.628Z,1012.77
2022-11-05T11:28:27.593Z,1012.75
2022-11-05T11:29:27.614Z,1012.76
2022-11-05T11:30:27.584Z,1012.77
2022-11-05T11:31:27.577Z,1012.77
2022-11-05T11:32:27.581Z,1012.77
2022-11-05T11:33:27.565Z,1012.78
2022-11-05T11:34:27.558Z,1012.79
2022-11-05T11:35:27.551Z,1012.77
2022-11-05T11:36:27.629Z,1012.81
2022-11-05T11:37:27.535Z,1012.81
2022-11-05T11:38:27.492Z,1012.80
2022-11-05T11:39:27.493Z,1012.79
2022-11-05T11:40:27.498Z,1012.82
2022-11-05T11:41:27.507Z,1012.86
2022-11-05T11:42:27.447Z,1012.85
2022-11-05T11:43:27.477Z,1012.86
2022-11-05T11:44:27.472Z,1012.88
2022-11-05T11:45:27.435Z,1012.93
2022-11-05T11:46:27.427Z,1012.92
2022-11-05T11:47:27.477Z,1012.92
2022-11-05T11:48:27.393Z,1012.92
2022-11-05T11:49:27.403Z,1012.92
2022-11-05T11:50:27.422Z,1012.90
2022-11-05T11:51:27.529Z,1012.91
2022-11-05T11:52:27.347Z,1012.89
2022-11-05T11:53:27.354Z,1012.86
2022-11-05T11:54:29.222Z,1012.87
2022-11-05T11:55:27.349Z,1012.88
2022-11-05T11:56:27.302Z,1012.85
2022-11-05T11:57:27.331Z,1012.86
2022-11-05T11:58:27.327Z,1012.86
2022-11-05T11:59:53.741Z,1012.84
2022-11-05T12:00:27.261Z,1012.84
2022-11-05T12:01:27.602Z,1012.83
2022-11-05T12:02:27.313Z,1012.83
2022-11-05T12:03:27.996Z,1012.83
2022-11-05T12:04:27.231Z,1012.84
2022-11-05T12:05:27.233Z,1012.82